createdAt,value
2023-11-18T00:01:56.317Z,96452.16
2023-11-18T00:04:25.371Z,96444.47
2023-11-18T00:06:55.760Z,96444.47
2023-11-18T00:09:26.174Z,96443.78
2023-11-18T00:11:55.142Z,96449.75
2023-11-18T00:14:24.312Z,96460.75
2023-11-18T00:16:53.012Z,96459.13
2023-11-18T00:19:22.336Z,96468.44
2023-11-18T00:21:51.110Z,96464.44
2023-11-18T00:24:19.930Z,96481.78
2023-11-18T00:26:50.421Z,96479.50
2023-11-18T00:29:19.218Z,96474.69
2023-11-18T00:31:47.950Z,96478.13
2023-11-18T00:34:16.697Z,96478.31
2023-11-18T00:36:45.773Z,96482.97
2023-11-18T00:39:15.402Z,96486.44
2023-11-18T00:41:47.216Z,96484.81
2023-11-18T00:44:17.990Z,96494.13
2023-11-18T00:46:46.926Z,96493.94
2023-11-18T00:49:15.829Z,96502.94
2023-11-18T00:51:44.550Z,96498.69
2023-11-18T00:54:14.096Z,96495.31
2023-11-18T00:56:43.586Z,96498.50
2023-11-18T00:59:12.381Z,96500.06
2023-11-18T01:01:45.356Z,96498.13
2023-11-18T01:04:14.039Z,96498.91
2023-11-18T01:06:42.947Z,96494.66
2023-11-18T01:09:11.896Z,96487.44
2023-11-18T01:11:41.369Z,96507.41
2023-11-18T01:14:30.223Z,96500.59
2023-11-18T01:17:00.982Z,96507.25
2023-11-18T01:19:29.738Z,96503.72
2023-11-18T01:22:01.553Z,96517.19
2023-11-18T01:24:31.620Z,96523.00
2023-11-18T01:27:00.468Z,96520.47
2023-11-18T01:29:29.657Z,96528.81
2023-11-18T01:32:00.239Z,96524.75
2023-11-18T01:34:30.643Z,96525.28
2023-11-18T01:36:59.349Z,96527.94
2023-11-18T01:39:28.758Z,96521.91
2023-11-18T01:42:02.831Z,96524.25
2023-11-18T01:44:35.288Z,96519.38
2023-11-18T01:47:12.110Z,96526.06
2023-11-18T01:49:42.344Z,96523.66
2023-11-18T01:52:11.381Z,96519.47
2023-11-18T01:54:41.165Z,96515.19
2023-11-18T01:57:10.929Z,96515.13
2023-11-18T01:59:41.959Z,96515.25
2023-11-18T02:02:12.893Z,96516.22
2023-11-18T02:04:42.017Z,96512.06
2023-11-18T02:07:10.916Z,96515.38
2023-11-18T02:09:40.935Z,96506.00
2023-11-18T02:12:18.897Z,96505.88
2023-11-18T02:14:48.219Z,96509.31
2023-11-18T02:17:21.307Z,96508.56
2023-11-18T02:19:53.859Z,96516.88
2023-11-18T02:22:25.721Z,96515.84
2023-11-18T02:24:54.605Z,96511.81
2023-11-18T02:27:27.398Z,96517.72
2023-11-18T02:29:56.165Z,96522.44
2023-11-18T02:32:32.067Z,96522.34
2023-11-18T02:35:11.722Z,96513.78
2023-11-18T02:37:43.739Z,96434.03
2023-11-18T02:40:16.183Z,96504.78
2023-11-18T02:42:49.610Z,96500.69
2023-11-18T02:45:18.980Z,96525.19
2023-11-18T02:47:47.875Z,96528.56
2023-11-18T02:50:17.266Z,96526.09
2023-11-18T02:52:46.508Z,96530.91
2023-11-18T02:55:15.712Z,96531.53
2023-11-18T02:57:45.958Z,96527.16
2023-11-18T03:00:20.289Z,96544.06
2023-11-18T03:02:49.687Z,96531.31
2023-11-18T03:05:18.942Z,96541.59
2023-11-18T03:07:51.290Z,96534.84
2023-11-18T03:10:23.484Z,96528.25
2023-11-18T03:12:54.919Z,96544.25
2023-11-18T03:15:24.488Z,96552.78
2023-11-18T03:17:53.522Z,96548.09
2023-11-18T03:20:24.611Z,96555.81
2023-11-18T03:22:53.802Z,96554.31
2023-11-18T03:25:23.726Z,96554.38
2023-11-18T03:27:55.932Z,96547.09
2023-11-18T03:30:24.716Z,96549.88
2023-11-18T03:32:53.494Z,96558.66
2023-11-18T03:35:22.328Z,96555.59
2023-11-18T03:37:51.145Z,96556.09
2023-11-18T03:40:19.725Z,96567.84
2023-11-18T03:42:48.729Z,96571.13
2023-11-18T03:45:20.581Z,96562.78
2023-11-18T03:47:51.602Z,96576.38
2023-11-18T03:50:21.081Z,96575.69
2023-11-18T03:52:49.680Z,96575.88
2023-11-18T03:55:19.368Z,96573.50
2023-11-18T03:57:48.420Z,96581.94
2023-11-18T04:00:20.995Z,96582.94
2023-11-18T04:02:50.094Z,96592.47
2023-11-18T04:05:18.675Z,96596.72
2023-11-18T04:07:47.184Z,96502.84
2023-11-18T04:10:16.307Z,96586.00
2023-11-18T04:12:48.018Z,96590.28
2023-11-18T04:15:17.136Z,96595.31
2023-11-18T04:17:47.821Z,96592.75
2023-11-18T04:20:17.588Z,96590.28
2023-11-18T04:22:46.585Z,96594.53
2023-11-18T04:25:16.499Z,96594.66
2023-11-18T04:27:47.140Z,96597.31
2023-11-18T04:30:16.642Z,96596.38
2023-11-18T04:32:47.269Z,96603.81
2023-11-18T04:35:16.897Z,96609.66
2023-11-18T04:37:47.343Z,96612.34
2023-11-18T04:40:17.065Z,96609.78
2023-11-18T04:42:45.678Z,96612.44
2023-11-18T04:45:15.997Z,96615.03
2023-11-18T04:47:46.581Z,96609.31
2023-11-18T04:50:15.157Z,96611.84
2023-11-18T04:52:43.802Z,96609.41
2023-11-18T04:55:14.923Z,96616.03
2023-11-18T04:57:44.816Z,96620.91
2023-11-18T05:00:17.838Z,96621.75
2023-11-18T05:02:49.320Z,96624.28
2023-11-18T05:05:18.978Z,96641.09
2023-11-18T05:07:47.573Z,96625.16
2023-11-18T05:10:16.207Z,96620.28
2023-11-18T05:12:45.964Z,96624.69
2023-11-18T05:15:14.697Z,96637.47
2023-11-18T05:17:43.290Z,96632.59
2023-11-18T05:20:14.429Z,96633.50
2023-11-18T05:22:42.962Z,96639.38
2023-11-18T05:25:12.154Z,96604.66
2023-11-18T05:27:42.002Z,96596.28
2023-11-18T05:30:11.189Z,96619.50
2023-11-18T05:32:41.273Z,96636.88
2023-11-18T05:35:12.821Z,96645.31
2023-11-18T05:37:43.417Z,96648.81
2023-11-18T05:40:17.092Z,96643.03
2023-11-18T05:42:49.673Z,96641.41
2023-11-18T05:45:29.351Z,96647.41
2023-11-18T05:47:58.943Z,96649.03
2023-11-18T05:50:27.874Z,96640.66
2023-11-18T05:52:59.238Z,96639.78
2023-11-18T05:55:27.889Z,96646.50
2023-11-18T05:57:56.474Z,96651.47
2023-11-18T06:00:30.984Z,96647.69
2023-11-18T06:03:05.196Z,96650.91
2023-11-18T06:05:36.395Z,96659.34
2023-11-18T06:08:07.034Z,96661.81
2023-11-18T06:10:36.414Z,96660.19
2023-11-18T06:13:05.920Z,96670.22
2023-11-18T06:15:37.129Z,96664.38
2023-11-18T06:18:06.499Z,96665.16
2023-11-18T06:20:37.591Z,96673.69
2023-11-18T06:23:10.606Z,96677.69
2023-11-18T06:25:41.211Z,96677.44
2023-11-18T06:28:10.033Z,96694.88
2023-11-18T06:30:39.973Z,96680.41
2023-11-18T06:33:11.372Z,96684.31
2023-11-18T06:35:41.708Z,96684.31
2023-11-18T06:38:14.496Z,96690.13
2023-11-18T06:40:43.724Z,96699.34
2023-11-18T06:43:12.334Z,96702.53
2023-11-18T06:45:45.665Z,96711.63
2023-11-18T06:48:16.081Z,96723.28
2023-11-18T06:50:45.367Z,96722.44
2023-11-18T06:53:16.545Z,96735.03
2023-11-18T06:55:48.292Z,96739.22
2023-11-18T06:58:16.704Z,96738.28
2023-11-18T07:00:47.102Z,96746.56
2023-11-18T07:03:16.131Z,96753.94
2023-11-18T07:05:45.628Z,96758.88
2023-11-18T07:08:15.678Z,96760.63
2023-11-18T07:10:43.995Z,96761.41
2023-11-18T07:13:12.368Z,96761.19
2023-11-18T07:15:43.051Z,96758.38
2023-11-18T07:18:13.577Z,96759.94
2023-11-18T07:20:45.289Z,96758.00
2023-11-18T07:23:14.093Z,96753.03
2023-11-18T07:25:45.031Z,96755.63
2023-11-18T07:28:16.208Z,96753.97
2023-11-18T07:30:48.695Z,96754.94
2023-11-18T07:33:17.292Z,96726.72
2023-11-18T07:35:47.653Z,96771.28
2023-11-18T07:38:16.823Z,96755.19
2023-11-18T07:40:49.167Z,96758.25
2023-11-18T07:43:18.644Z,96752.19
2023-11-18T07:45:50.873Z,96750.22
2023-11-18T07:48:19.466Z,96746.44
2023-11-18T07:50:48.448Z,96754.38
2023-11-18T07:53:17.330Z,96746.56
2023-11-18T07:55:51.684Z,96739.03
2023-11-18T07:58:21.558Z,96763.53
2023-11-18T08:00:50.688Z,96760.44
2023-11-18T08:03:19.429Z,96770.03
2023-11-18T08:05:47.812Z,96772.00
2023-11-18T08:08:18.378Z,96770.81
2023-11-18T08:10:49.830Z,96773.06
2023-11-18T08:13:18.788Z,96770.44
2023-11-18T08:15:47.952Z,96769.28
2023-11-18T08:18:16.929Z,96767.53
2023-11-18T08:20:46.426Z,96745.06
2023-11-18T08:23:14.969Z,96768.41
2023-11-18T08:25:43.658Z,96774.47
2023-11-18T08:28:15.096Z,96780.06
2023-11-18T08:30:45.442Z,96781.31
2023-11-18T08:33:14.664Z,96779.56
2023-11-18T08:35:46.186Z,96780.06
2023-11-18T08:38:14.907Z,96781.53
2023-11-18T08:40:46.403Z,96778.69
2023-11-18T08:43:21.217Z,96784.25
2023-11-18T08:45:52.306Z,96789.06
2023-11-18T08:48:21.390Z,96786.53
2023-11-18T08:50:50.145Z,96793.22
2023-11-18T08:53:19.917Z,96794.53
2023-11-18T08:55:56.017Z,96795.47
2023-11-18T08:58:29.765Z,96800.19
2023-11-18T09:01:07.821Z,96800.94
2023-11-18T09:03:37.597Z,96798.66
2023-11-18T09:06:19.067Z,96805.19
2023-11-18T09:08:54.542Z,96811.19
2023-11-18T09:11:25.197Z,96815.81
2023-11-18T09:13:58.629Z,96816.41
2023-11-18T09:16:31.040Z,96818.50
2023-11-18T09:19:03.470Z,96824.22
2023-11-18T09:21:36.992Z,96826.69
2023-11-18T09:24:09.401Z,96829.03
2023-11-18T09:26:37.841Z,96827.84
2023-11-18T09:29:09.959Z,96831.94
2023-11-18T09:31:39.733Z,96833.34
2023-11-18T09:34:17.314Z,96837.34
2023-11-18T09:36:46.506Z,96840.56
2023-11-18T09:39:30.531Z,96838.59
2023-11-18T09:41:59.557Z,96844.78
2023-11-18T09:44:30.163Z,96838.69
2023-11-18T09:47:06.025Z,96836.84
2023-11-18T09:49:42.134Z,96841.88
2023-11-18T09:52:14.851Z,96843.72
2023-11-18T09:54:53.760Z,96838.16
2023-11-18T09:57:31.144Z,96823.41
2023-11-18T10:00:12.493Z,96836.78
2023-11-18T10:02:42.655Z,96827.38
2023-11-18T10:05:14.040Z,96803.88
2023-11-18T10:07:44.371Z,96822.47
2023-11-18T10:10:16.113Z,96816.53
2023-11-18T10:12:46.157Z,96767.00
2023-11-18T10:15:18.470Z,96806.06
2023-11-18T10:17:56.546Z,96804.06
2023-11-18T10:20:27.248Z,96794.34
2023-11-18T10:23:12.645Z,96792.41
2023-11-18T10:25:45.652Z,96774.00
2023-11-18T10:28:24.932Z,96796.44
2023-11-18T10:30:54.764Z,96789.75
2023-11-18T10:33:24.770Z,96789.44
2023-11-18T10:35:57.133Z,96766.19
2023-11-18T10:38:27.700Z,96796.41
2023-11-18T10:40:57.556Z,96786.97
2023-11-18T10:43:26.898Z,96783.13
2023-11-18T10:46:13.370Z,96782.84
2023-11-18T10:48:44.111Z,96773.81
2023-11-18T10:51:14.763Z,96785.88
2023-11-18T10:53:54.681Z,96778.16
2023-11-18T10:56:29.175Z,96787.66
2023-11-18T10:58:59.717Z,96774.38
2023-11-18T11:01:33.969Z,96781.16
2023-11-18T11:04:06.168Z,96778.38
2023-11-18T11:06:36.129Z,96785.91
2023-11-18T11:09:11.166Z,96798.41
2023-11-18T11:11:43.207Z,96783.84
2023-11-18T11:14:13.138Z,96799.47
2023-11-18T11:16:48.835Z,96809.28
2023-11-18T11:19:27.325Z,96796.34
2023-11-18T11:22:04.369Z,96805.31
2023-11-18T11:24:52.174Z,96812.22
2023-11-18T11:27:30.549Z,96821.53
2023-11-18T11:30:11.617Z,96824.63
2023-11-18T11:32:49.455Z,96821.91
2023-11-18T11:35:23.337Z,96831.41
2023-11-18T11:37:54.865Z,96755.00
2023-11-18T11:40:24.562Z,96826.13
2023-11-18T11:42:56.699Z,96821.44
2023-11-18T11:45:29.855Z,96824.41
2023-11-18T11:48:15.801Z,96825.06
2023-11-18T11:50:55.566Z,96822.56
2023-11-18T11:53:26.800Z,96823.47
2023-11-18T11:56:06.629Z,96821.56
2023-11-18T11:58:39.205Z,96819.41
2023-11-18T12:01:25.001Z,96811.34
2023-11-18T12:03:59.564Z,96810.56
2023-11-18T12:06:30.008Z,96808.97
2023-11-18T12:09:01.663Z,96802.25
2023-11-18T12:11:38.593Z,96794.72
2023-11-18T12:14:33.981Z,96802.31
2023-11-18T12:17:11.349Z,96805.97
2023-11-18T12:19:49.627Z,96799.13
2023-11-18T12:22:26.213Z,96804.22
2023-11-18T12:25:34.993Z,96807.13
2023-11-18T12:28:11.654Z,96801.06
2023-11-18T12:30:45.366Z,96803.56
2023-11-18T12:33:20.368Z,96791.44
2023-11-18T12:36:18.809Z,96793.69
2023-11-18T12:39:15.603Z,96802.34
2023-11-18T12:41:45.261Z,96792.22
2023-11-18T12:44:33.149Z,96791.34
2023-11-18T12:47:15.623Z,96800.38
2023-11-18T12:49:45.066Z,96789.53
2023-11-18T12:52:16.613Z,96788.28
2023-11-18T12:54:52.213Z,96795.09
2023-11-18T12:57:24.585Z,96780.31
2023-11-18T12:59:54.456Z,96786.91
2023-11-18T13:02:25.245Z,96788.50
2023-11-18T13:04:54.527Z,96784.09
2023-11-18T13:07:26.458Z,96785.53
2023-11-18T13:09:55.843Z,96786.19
2023-11-18T13:12:25.220Z,96763.09
2023-11-18T13:14:53.957Z,96784.97
2023-11-18T13:17:23.324Z,96766.44
2023-11-18T13:19:55.722Z,96777.19
2023-11-18T13:22:39.026Z,96770.56
2023-11-18T13:25:15.709Z,96778.75
2023-11-18T13:27:44.714Z,96771.22
2023-11-18T13:30:15.212Z,96768.25
2023-11-18T13:32:44.444Z,96752.56
2023-11-18T13:35:15.378Z,96755.56
2023-11-18T13:37:49.600Z,96758.16
2023-11-18T13:40:19.677Z,96749.56
2023-11-18T13:42:49.240Z,96745.78
2023-11-18T13:45:30.786Z,96767.97
2023-11-18T13:48:08.401Z,96774.59
2023-11-18T13:50:38.848Z,96776.59
2023-11-18T13:53:09.928Z,96772.69
2023-11-18T13:55:40.162Z,96780.88
2023-11-18T13:58:12.226Z,96778.94
2023-11-18T14:00:43.026Z,96776.97
2023-11-18T14:03:14.061Z,96736.66
2023-11-18T14:05:47.588Z,96761.34
2023-11-18T14:08:21.751Z,96750.63
2023-11-18T14:11:02.128Z,96745.75
2023-11-18T14:13:34.244Z,96741.81
2023-11-18T14:16:03.191Z,96757.94
2023-11-18T14:18:31.814Z,96763.75
2023-11-18T14:21:02.212Z,96769.28
2023-11-18T14:23:32.861Z,96762.66
2023-11-18T14:26:01.264Z,96771.06
2023-11-18T14:28:30.518Z,96784.00
2023-11-18T14:30:59.219Z,96780.13
2023-11-18T14:33:27.908Z,96777.78
2023-11-18T14:35:57.590Z,96789.19
2023-11-18T14:38:26.688Z,96783.69
2023-11-18T14:40:57.931Z,96786.91
2023-11-18T14:43:26.590Z,96785.72
2023-11-18T14:45:55.355Z,96794.34
2023-11-18T14:48:24.954Z,96798.09
2023-11-18T14:50:54.277Z,96795.53
2023-11-18T14:53:23.880Z,96807.88
2023-11-18T14:55:52.578Z,96816.41
2023-11-18T14:58:23.559Z,96813.28
2023-11-18T15:00:52.384Z,96805.63
2023-11-18T15:03:24.790Z,96794.75
2023-11-18T15:05:54.058Z,96808.25
2023-11-18T15:08:22.835Z,96810.72
2023-11-18T15:10:52.315Z,96805.06
2023-11-18T15:13:22.608Z,96802.97
2023-11-18T15:15:51.478Z,96801.22
2023-11-18T15:18:21.357Z,96801.22
2023-11-18T15:20:49.842Z,96806.91
2023-11-18T15:23:19.792Z,96795.75
2023-11-18T15:25:49.256Z,96793.78
2023-11-18T15:28:20.082Z,96784.78
2023-11-18T15:30:50.033Z,96789.59
2023-11-18T15:33:19.421Z,96790.97
2023-11-18T15:35:47.978Z,96790.66
2023-11-18T15:38:20.396Z,96800.13
2023-11-18T15:40:52.365Z,96787.03
2023-11-18T15:43:21.568Z,96790.34
2023-11-18T15:45:52.169Z,96790.06
2023-11-18T15:48:21.738Z,96794.59
2023-11-18T15:50:51.169Z,96796.84
2023-11-18T15:53:21.117Z,96797.63
2023-11-18T15:55:49.886Z,96801.47
2023-11-18T15:58:20.647Z,96770.97
2023-11-18T16:00:53.836Z,96812.56
2023-11-18T16:03:24.157Z,96808.50
2023-11-18T16:05:56.125Z,96799.53
2023-11-18T16:08:25.050Z,96808.22
2023-11-18T16:10:55.667Z,96809.41
2023-11-18T16:13:24.594Z,96795.47
2023-11-18T16:15:53.614Z,96809.22
2023-11-18T16:18:24.265Z,96815.31
2023-11-18T16:20:53.103Z,96810.38
2023-11-18T16:23:22.630Z,96822.84
2023-11-18T16:25:51.300Z,96810.97
2023-11-18T16:28:20.118Z,96814.53
2023-11-18T16:30:48.994Z,96806.34
2023-11-18T16:33:18.097Z,96814.06
2023-11-18T16:35:48.314Z,96803.22
2023-11-18T16:38:17.249Z,96805.09
2023-11-18T16:40:45.778Z,96797.06
2023-11-18T16:43:14.429Z,96790.03
2023-11-18T16:45:43.502Z,96787.56
2023-11-18T16:48:12.160Z,96788.34
2023-11-18T16:50:41.317Z,96793.28
2023-11-18T16:53:12.531Z,96799.38
2023-11-18T16:55:41.238Z,96790.50
2023-11-18T16:58:10.331Z,96788.84
2023-11-18T17:00:39.708Z,96795.66
2023-11-18T17:03:08.973Z,96805.88
2023-11-18T17:05:38.136Z,96795.94
2023-11-18T17:08:07.747Z,96806.78
2023-11-18T17:10:38.785Z,96804.97
2023-11-18T17:13:09.890Z,96795.94
2023-11-18T17:15:38.730Z,96807.00
2023-11-18T17:18:07.635Z,96782.56
2023-11-18T17:20:37.726Z,96773.41
2023-11-18T17:23:07.594Z,96766.00
2023-11-18T17:25:38.370Z,96761.28
2023-11-18T17:28:09.626Z,96767.16
2023-11-18T17:30:44.931Z,96770.56
2023-11-18T17:33:13.887Z,96772.19
2023-11-18T17:35:44.263Z,96778.31
2023-11-18T17:38:14.390Z,96683.56
2023-11-18T17:40:45.155Z,96768.63
2023-11-18T17:43:14.055Z,96781.31
2023-11-18T17:45:42.940Z,96789.91
2023-11-18T17:48:11.792Z,96772.34
2023-11-18T17:50:41.308Z,96779.97
2023-11-18T17:53:11.039Z,96785.97
2023-11-18T17:55:43.987Z,96783.50
2023-11-18T17:58:12.936Z,96783.72
2023-11-18T18:00:42.458Z,96783.28
2023-11-18T18:03:11.954Z,96777.50
2023-11-18T18:05:40.603Z,96780.88
2023-11-18T18:08:09.869Z,96774.88
2023-11-18T18:10:38.617Z,96764.66
2023-11-18T18:13:10.909Z,96771.66
2023-11-18T18:15:45.973Z,96766.72
2023-11-18T18:18:16.664Z,96765.13
2023-11-18T18:20:49.479Z,96725.06
2023-11-18T18:23:18.284Z,96761.59
2023-11-18T18:25:47.441Z,96758.13
2023-11-18T18:28:17.994Z,96758.13
2023-11-18T18:30:46.665Z,96754.03
2023-11-18T18:33:19.503Z,96761.50
2023-11-18T18:35:48.420Z,96766.50
2023-11-18T18:38:17.446Z,96768.19
2023-11-18T18:40:46.836Z,96773.31
2023-11-18T18:43:17.245Z,96765.03
2023-11-18T18:45:46.738Z,96723.59
2023-11-18T18:48:15.949Z,96753.28
2023-11-18T18:50:45.305Z,96754.09
2023-11-18T18:53:14.874Z,96742.38
2023-11-18T18:55:44.901Z,96750.03
2023-11-18T18:58:14.974Z,96703.09
2023-11-18T19:00:45.367Z,96748.47
2023-11-18T19:03:14.382Z,96750.81
2023-11-18T19:05:43.451Z,96762.50
2023-11-18T19:08:12.415Z,96750.78
2023-11-18T19:10:41.164Z,96749.03
2023-11-18T19:13:10.203Z,96747.31
2023-11-18T19:15:39.550Z,96744.00
2023-11-18T19:18:10.215Z,96744.06
2023-11-18T19:20:39.306Z,96743.66
2023-11-18T19:23:08.750Z,96738.66
2023-11-18T19:25:37.392Z,96743.16
2023-11-18T19:28:10.565Z,96749.19
2023-11-18T19:30:41.343Z,96745.94
2023-11-18T19:33:13.297Z,96749.16
2023-11-18T19:35:42.143Z,96724.59
2023-11-18T19:38:11.036Z,96721.31
2023-11-18T19:40:40.035Z,96726.03
2023-11-18T19:43:10.780Z,96722.56
2023-11-18T19:45:40.537Z,96720.78
2023-11-18T19:48:09.636Z,96726.41
2023-11-18T19:50:39.740Z,96735.69
2023-11-18T19:53:09.257Z,96722.25
2023-11-18T19:55:38.424Z,96721.25
2023-11-18T19:58:07.127Z,96723.63
2023-11-18T20:00:45.852Z,96726.13
2023-11-18T20:03:15.831Z,96719.53
2023-11-18T20:05:45.948Z,96727.34
2023-11-18T20:08:14.692Z,96717.59
2023-11-18T20:10:43.734Z,96716.91
2023-11-18T20:13:12.603Z,96696.69
2023-11-18T20:15:41.450Z,96685.50
2023-11-18T20:18:11.600Z,96696.09
2023-11-18T20:20:40.569Z,96686.63
2023-11-18T20:23:12.350Z,96685.72
2023-11-18T20:25:41.952Z,96671.44
2023-11-18T20:28:10.908Z,96657.88
2023-11-18T20:30:40.509Z,96666.34
2023-11-18T20:33:09.455Z,96655.41
2023-11-18T20:35:39.310Z,96652.81
2023-11-18T20:38:08.342Z,96653.50
2023-11-18T20:40:38.952Z,96640.78
2023-11-18T20:43:09.158Z,96627.50
2023-11-18T20:45:41.839Z,96632.94
2023-11-18T20:48:12.564Z,96629.53
2023-11-18T20:50:45.437Z,96614.34
2023-11-18T20:53:16.583Z,96613.59
2023-11-18T20:55:47.141Z,96606.09
2023-11-18T20:58:16.076Z,96599.13
2023-11-18T21:00:44.975Z,96591.38
2023-11-18T21:03:14.039Z,96596.31
2023-11-18T21:05:43.771Z,96581.19
2023-11-18T21:08:14.194Z,96591.16
2023-11-18T21:10:45.135Z,96600.34
2023-11-18T21:13:15.119Z,96596.09
2023-11-18T21:15:44.957Z,96577.63
2023-11-18T21:18:13.930Z,96566.66
2023-11-18T21:20:43.089Z,96568.22
2023-11-18T21:23:11.692Z,96566.47
2023-11-18T21:25:40.286Z,96556.50
2023-11-18T21:28:09.588Z,96558.09
2023-11-18T21:30:39.952Z,96557.06
2023-11-18T21:33:10.698Z,96548.50
2023-11-18T21:35:40.762Z,96553.56
2023-11-18T21:38:09.541Z,96548.50
2023-11-18T21:40:38.029Z,96544.19
2023-11-18T21:43:07.254Z,96546.69
2023-11-18T21:45:38.842Z,96559.31
2023-11-18T21:48:09.647Z,96563.59
2023-11-18T21:50:38.512Z,96562.75
2023-11-18T21:53:08.093Z,96563.41
2023-11-18T21:55:37.229Z,96560.81
2023-11-18T21:58:08.302Z,96551.56
2023-11-18T22:00:45.424Z,96553.19
2023-11-18T22:03:16.920Z,96550.59
2023-11-18T22:05:46.255Z,96532.00
2023-11-18T22:08:20.556Z,96527.69
2023-11-18T22:10:49.494Z,96527.63
2023-11-18T22:13:18.545Z,96531.72
2023-11-18T22:15:48.194Z,96528.38
2023-11-18T22:18:18.600Z,96520.09
2023-11-18T22:20:47.290Z,96514.28
2023-11-18T22:23:16.555Z,96510.81
2023-11-18T22:25:49.694Z,96459.22
2023-11-18T22:28:18.348Z,96497.03
2023-11-18T22:30:49.106Z,96477.72
2023-11-18T22:35:51.952Z,96474.53
2023-11-18T22:38:20.651Z,96470.34
2023-11-18T22:40:49.377Z,96461.72
2023-11-18T22:43:20.882Z,96468.31
2023-11-18T22:45:51.974Z,96464.91
2023-11-18T22:48:22.528Z,96448.06
2023-11-18T22:50:51.577Z,96453.03
2023-11-18T22:53:20.185Z,96460.75
2023-11-18T22:55:49.658Z,96463.31
2023-11-18T22:58:18.476Z,96453.94
2023-11-18T23:00:54.634Z,96455.56
2023-11-18T23:03:27.697Z,96451.09
2023-11-18T23:06:09.854Z,96444.34
2023-11-18T23:08:40.618Z,96444.47
2023-11-18T23:11:09.399Z,96440.22
2023-11-18T23:13:37.960Z,96440.16
2023-11-18T23:16:12.885Z,96442.53
2023-11-18T23:18:44.073Z,96434.97
2023-11-18T23:21:16.206Z,96432.38
2023-11-18T23:23:46.002Z,96429.72
2023-11-18T23:26:15.032Z,96424.50
2023-11-18T23:28:43.938Z,96426.00
2023-11-18T23:31:13.806Z,96422.63
2023-11-18T23:33:46.075Z,96420.13
2023-11-18T23:36:17.512Z,96416.75
2023-11-18T23:38:47.566Z,96415.75
2023-11-18T23:41:17.875Z,96417.25
2023-11-18T23:43:47.361Z,96411.22
2023-11-18T23:46:15.874Z,96412.69
2023-11-18T23:48:45.214Z,96405.97
2023-11-18T23:51:14.091Z,96406.03
2023-11-18T23:53:43.365Z,96330.06
2023-11-18T23:56:12.829Z,96403.78
2023-11-18T23:58:42.239Z,96395.28
